Time;durP1;ratioP1;P1;durP2;ratioP2;P2;SDS_P1;SDS_P2;PMS_P1;PMS_P2;Temp;Humidity;BMP_temperature;BMP_pressure;BME280_temperature;BME280_humidity;BME280_pressure;Samples;Min_cycle;Max_cycle;Signal;HPM_P1;HPM_P2
2023/05/14 00:00:08;;;;;;;;;;;;;;;;;;1045353;28;2962;-49
2023/05/14 00:00:53;;;;;;;;;;;;;;;;;;1044717;28;3829;-48
2023/05/14 00:01:32;;;;;;;;;;;;;;;;;;1041246;28;4009;-54
2023/05/14 00:02:02;;;;;;;;;;;;;;;;;;1040191;28;2939;-48
2023/05/14 00:02:33;;;;;;;;;;;;;;;;;;1040576;28;3952;-48
2023/05/14 00:03:03;;;;;;;;;;;;;;;;;;1039514;28;2921;-47
2023/05/14 00:03:33;;;;;;;;;;;;;;;;;;1041914;28;4130;-51
2023/05/14 00:04:03;;;;;;;;;;;;;;;;;;1042883;28;1521;-54
2023/05/14 00:04:34;;;;;;;;;;;;;;;;;;1040574;28;3782;-51
2023/05/14 00:05:04;;;;;;;;;;;;;;;;;;1039361;28;3168;-51
2023/05/14 00:05:35;;;;;;;;;;;;;;;;;;1038710;28;4068;-53
2023/05/14 00:06:05;;;;;;;;;;;;;;;;;;1040184;28;2983;-51
2023/05/14 00:06:36;;;;;;;;;;;;;;;;;;1041269;28;4243;-48
2023/05/14 00:07:06;;;;;;;;;;;;;;;;;;1037603;28;3084;-51
2023/05/14 00:07:36;;;;;;;;;;;;;;;;;;1039667;28;3922;-53
2023/05/14 00:08:06;;;;;;;;;;;;;;;;;;1041250;28;3056;-49
2023/05/14 00:08:37;;;;;;;;;;;;;;;;;;1041472;28;4051;-51
2023/05/14 00:09:07;;;;;;;;;;;;;;;;;;1041274;28;2807;-49
2023/05/14 00:09:37;;;;;;;;;;;;;;;;;;1041502;28;3977;-51
2023/05/14 00:10:08;;;;;;;;;;;;;;;;;;1040722;28;2934;-50
2023/05/14 00:10:38;;;;;;;;;;;;;;;;;;1040721;28;4007;-50
2023/05/14 00:11:08;;;;;;;;;;;;;;;;;;1039986;28;2956;-50
2023/05/14 00:11:39;;;;;;;;;;;;;;;;;;1040200;28;3988;-52
2023/05/14 00:12:09;;;;;;;;;;;;;;;;;;1042926;28;1739;-50
2023/05/14 00:12:39;;;;;;;;;;;;;;;;;;1042537;28;3979;-51
2023/05/14 00:13:10;;;;;;;;;;;;;;;;;;1038522;28;2968;-50
2023/05/14 00:13:40;;;;;;;;;;;;;;;;;;1040775;28;3917;-51
2023/05/14 00:14:10;;;;;;;;;;;;;;;;;;1041223;28;2888;-52
2023/05/14 00:14:41;;;;;;;;;;;;;;;;;;1040369;28;3971;-51
2023/05/14 00:15:11;;;;;;;;;;;;;;;;;;1037688;28;3482;-51
2023/05/14 00:15:41;;;;;;;;;;;;;;;;;;1042105;28;4003;-51
2023/05/14 00:16:12;;;;;;;;;;;;;;;;;;1039908;28;2693;-49
2023/05/14 00:16:42;;;;;;;;;;;;;;;;;;1041693;28;3904;-48
2023/05/14 00:17:12;;;;;;;;;;;;;;;;;;1041486;28;1864;-50
2023/05/14 00:17:42;;;;;;;;;;;;;;;;;;1037929;28;3842;-50
2023/05/14 00:18:13;;;;;;;;;;;;;;;;;;1039043;28;3647;-52
2023/05/14 00:18:43;;;;;;;;;;;;;;;;;;1042194;28;3937;-49
2023/05/14 00:19:13;;;;;;;;;;;;;;;;;;1040358;28;1670;-52
2023/05/14 00:19:44;;;;;;;;;;;;;;;;;;1040058;28;3879;-54
2023/05/14 00:20:14;;;;;;;;;;;;;;;;;;1040824;28;1848;-50
2023/05/14 00:20:44;;;;;;;;;;;;;;;;;;1038502;28;3814;-48
2023/05/14 00:21:16;;;;;;;;;;;;;;;;;;1040940;28;2923;-49
2023/05/14 00:21:46;;;;;;;;;;;;;;;;;;1039008;28;3956;-52
2023/05/14 00:22:16;;;;;;;;;;;;;;;;;;1041006;28;2975;-49
2023/05/14 00:22:47;;;;;;;;;;;;;;;;;;1038307;28;3808;-51
2023/05/14 00:23:17;;;;;;;;;;;;;;;;;;1041707;28;3955;-48
2023/05/14 00:23:47;;;;;;;;;;;;;;;;;;1041634;28;3268;-51
2023/05/14 00:24:17;;;;;;;;;;;;;;;;;;1043449;28;3993;-49
2023/05/14 00:24:48;;;;;;;;;;;;;;;;;;1045524;28;3013;-53
2023/05/14 00:25:18;;;;;;;;;;;;;;;;;;1046628;28;4093;-49
2023/05/14 00:25:49;;;;;;;;;;;;;;;;;;1043130;28;3193;-52
2023/05/14 00:26:20;;;;;;;;;;;;;;;;;;1044871;28;5410;-50
2023/05/14 00:26:50;;;;;;;;;;;;;;;;;;1045659;28;1766;-55
2023/05/14 00:27:20;;;;;;;;;;;;;;;;;;1043882;28;3885;-50
2023/05/14 00:27:51;;;;;;;;;;;;;;;;;;1044504;28;3664;-50
2023/05/14 00:28:21;;;;;;;;;;;;;;;;;;1045702;28;3810;-51
2023/05/14 00:28:51;;;;;;;;;;;;;;;;;;1046638;28;1689;-48
2023/05/14 00:29:21;;;;;;;;;;;;;;;;;;1042287;28;4051;-52
2023/05/14 00:29:52;;;;;;;;;;;;;;;;;;1044403;28;3095;-50
2023/05/14 00:30:22;;;;;;;;;;;;;;;;;;1043105;28;3868;-51
2023/05/14 00:30:53;;;;;;;;;;;;;;;;;;1045271;28;2661;-53
2023/05/14 00:31:23;;;;;;;;;;;;;;;;;;1042235;28;3955;-50
2023/05/14 00:31:53;;;;;;;;;;;;;;;;;;1043413;28;2972;-51
2023/05/14 00:32:23;;;;;;;;;;;;;;;;;;1044269;28;4057;-49
2023/05/14 00:32:54;;;;;;;;;;;;;;;;;;1040991;28;5166;-49
2023/05/14 00:33:24;;;;;;;;;;;;;;;;;;1043805;28;4022;-52
2023/05/14 00:33:54;;;;;;;;;;;;;;;;;;1045621;28;2782;-53
2023/05/14 00:34:25;;;;;;;;;;;;;;;;;;1043699;28;4034;-48
2023/05/14 00:34:55;;;;;;;;;;;;;;;;;;1042315;28;2941;-49
2023/05/14 00:35:25;;;;;;;;;;;;;;;;;;1042034;28;4049;-49
2023/05/14 00:35:55;;;;;;;;;;;;;;;;;;1043007;28;3028;-51
2023/05/14 00:36:26;;;;;;;;;;;;;;;;;;1041890;28;3950;-49
2023/05/14 00:36:56;;;;;;;;;;;;;;;;;;1042928;28;3011;-53
2023/05/14 00:37:26;;;;;;;;;;;;;;;;;;1043435;28;4019;-51
2023/05/14 00:37:56;;;;;;;;;;;;;;;;;;1043402;28;2867;-47
2023/05/14 00:38:27;;;;;;;;;;;;;;;;;;1045199;28;3793;-51
2023/05/14 00:38:57;;;;;;;;;;;;;;;;;;1044595;28;2828;-52
2023/05/14 00:39:27;;;;;;;;;;;;;;;;;;1045545;28;4276;-52
2023/05/14 00:39:58;;;;;;;;;;;;;;;;;;1043512;28;2900;-53
2023/05/14 00:40:28;;;;;;;;;;;;;;;;;;1043987;28;3885;-50
2023/05/14 00:40:59;;;;;;;;;;;;;;;;;;1043508;28;3040;-48
2023/05/14 00:41:29;;;;;;;;;;;;;;;;;;1041687;28;3973;-50
2023/05/14 00:41:59;;;;;;;;;;;;;;;;;;1042278;28;3078;-50
2023/05/14 00:42:29;;;;;;;;;;;;;;;;;;1039074;28;3916;-53
2023/05/14 00:43:00;;;;;;;;;;;;;;;;;;1043607;28;3224;-51
2023/05/14 00:43:32;;;;;;;;;;;;;;;;;;1044008;28;4098;-50
2023/05/14 00:44:02;;;;;;;;;;;;;;;;;;1045168;28;3027;-50
2023/05/14 00:44:32;;;;;;;;;;;;;;;;;;1042215;28;3805;-50
2023/05/14 00:45:03;;;;;;;;;;;;;;;;;;1044376;28;2777;-52
2023/05/14 00:45:33;;;;;;;;;;;;;;;;;;1043745;28;3811;-48
2023/05/14 00:46:04;;;;;;;;;;;;;;;;;;1047348;28;3662;-49
2023/05/14 00:46:35;;;;;;;;;;;;;;;;;;1043063;28;4090;-49
2023/05/14 00:47:06;;;;;;;;;;;;;;;;;;1045173;28;3020;-51
2023/05/14 00:47:38;;;;;;;;;;;;;;;;;;1041639;28;3916;-51
2023/05/14 00:48:08;;;;;;;;;;;;;;;;;;1041913;28;3053;-50
2023/05/14 00:48:39;;;;;;;;;;;;;;;;;;1042763;28;3873;-48
2023/05/14 00:49:09;;;;;;;;;;;;;;;;;;1044346;28;3309;-47
2023/05/14 00:49:40;;;;;;;;;;;;;;;;;;1040963;28;4002;-49
2023/05/14 00:50:11;;;;;;;;;;;;;;;;;;1042422;28;3031;-50
2023/05/14 00:50:41;;;;;;;;;;;;;;;;;;1042211;28;3995;-50
2023/05/14 00:51:12;;;;;;;;;;;;;;;;;;1044930;28;3216;-51
2023/05/14 00:51:45;;;;;;;;;;;;;;;;;;1040019;28;4142;-48
2023/05/14 00:52:16;;;;;;;;;;;;;;;;;;1042014;28;3509;-53
2023/05/14 00:52:47;;;;;;;;;;;;;;;;;;1042604;28;3822;-53
2023/05/14 00:53:18;;;;;;;;;;;;;;;;;;1044886;28;4597;-52
2023/05/14 00:53:48;;;;;;;;;;;;;;;;;;1043310;28;3087;-47
2023/05/14 00:54:19;;;;;;;;;;;;;;;;;;1042515;28;4103;-49
2023/05/14 00:54:49;;;;;;;;;;;;;;;;;;1042030;28;3279;-54
2023/05/14 00:55:20;;;;;;;;;;;;;;;;;;1044712;28;4032;-48
2023/05/14 00:55:51;;;;;;;;;;;;;;;;;;1047719;28;1594;-50
2023/05/14 00:56:21;;;;;;;;;;;;;;;;;;1044223;28;3957;-52
2023/05/14 00:56:52;;;;;;;;;;;;;;;;;;1044401;28;3099;-53
2023/05/14 00:57:22;;;;;;;;;;;;;;;;;;1045737;28;4147;-49
2023/05/14 00:57:53;;;;;;;;;;;;;;;;;;1044053;28;2875;-48
2023/05/14 00:58:23;;;;;;;;;;;;;;;;;;1045651;28;4209;-50
2023/05/14 00:58:54;;;;;;;;;;;;;;;;;;1048054;28;1751;-49
2023/05/14 00:59:24;;;;;;;;;;;;;;;;;;1045111;28;4411;-49
2023/05/14 00:59:54;;;;;;;;;;;;;;;;;;1046502;28;2896;-52
2023/05/14 01:00:25;;;;;;;;;;;;;;;;;;1046478;28;4460;-49
2023/05/14 01:00:55;;;;;;;;;;;;;;;;;;1045961;28;2209;-50
2023/05/14 01:01:27;;;;;;;;;;;;;;;;;;1044342;28;3876;-51
2023/05/14 01:01:57;;;;;;;;;;;;;;;;;;1046464;28;3179;-50
2023/05/14 01:02:28;;;;;;;;;;;;;;;;;;1045869;28;6267;-49
2023/05/14 01:03:00;;;;;;;;;;;;;;;;;;1045614;28;2887;-54
2023/05/14 01:03:30;;;;;;;;;;;;;;;;;;1044107;28;4920;-51
2023/05/14 01:04:01;;;;;;;;;;;;;;;;;;1043237;28;3202;-51
2023/05/14 01:04:31;;;;;;;;;;;;;;;;;;1047524;28;4248;-50
2023/05/14 01:05:02;;;;;;;;;;;;;;;;;;1045560;28;3067;-49
2023/05/14 01:05:51;;;;;;;;;;;;;;;;;;1042508;28;4239;-52
2023/05/14 01:06:24;;;;;;;;;;;;;;;;;;1045750;28;4169;-53
2023/05/14 01:07:01;;;;;;;;;;;;;;;;;;1045599;28;3299;-48
2023/05/14 01:07:50;;;;;;;;;;;;;;;;;;1046009;28;3877;-50
2023/05/14 01:08:20;;;;;;;;;;;;;;;;;;1044593;28;4172;-49
2023/05/14 01:08:53;;;;;;;;;;;;;;;;;;1046259;28;2973;-50
2023/05/14 01:09:42;;;;;;;;;;;;;;;;;;1045171;28;3768;-48
2023/05/14 01:10:25;;;;;;;;;;;;;;;;;;1045412;28;1913;-50
2023/05/14 01:10:58;;;;;;;;;;;;;;;;;;1044864;28;3824;-49
2023/05/14 01:11:31;;;;;;;;;;;;;;;;;;1045227;28;6382;-51
2023/05/14 01:12:14;;;;;;;;;;;;;;;;;;1048137;28;1690;-49
2023/05/14 01:12:56;;;;;;;;;;;;;;;;;;1045604;28;3975;-53
2023/05/14 01:13:30;;;;;;;;;;;;;;;;;;1045144;28;3779;-49
2023/05/14 01:14:06;;;;;;;;;;;;;;;;;;1045692;28;2952;-48
2023/05/14 01:14:40;;;;;;;;;;;;;;;;;;1043487;28;3782;-51
2023/05/14 01:15:15;;;;;;;;;;;;;;;;;;1044926;28;3006;-53
2023/05/14 01:15:46;;;;;;;;;;;;;;;;;;1043233;28;3773;-51
2023/05/14 01:16:17;;;;;;;;;;;;;;;;;;1045576;28;2788;-52
2023/05/14 01:16:51;;;;;;;;;;;;;;;;;;1043382;28;3734;-51
2023/05/14 01:17:23;;;;;;;;;;;;;;;;;;1047030;28;4380;-48
2023/05/14 01:17:57;;;;;;;;;;;;;;;;;;1043848;28;3020;-48
2023/05/14 01:18:28;;;;;;;;;;;;;;;;;;1044567;28;4015;-54
2023/05/14 01:19:00;;;;;;;;;;;;;;;;;;1045001;28;2908;-51
2023/05/14 01:19:38;;;;;;;;;;;;;;;;;;1047184;28;4168;-54
2023/05/14 01:20:09;;;;;;;;;;;;;;;;;;1046297;28;2187;-49
2023/05/14 01:20:39;;;;;;;;;;;;;;;;;;1045692;28;3874;-50
2023/05/14 01:21:28;;;;;;;;;;;;;;;;;;1044836;28;3022;-47
2023/05/14 01:21:58;;;;;;;;;;;;;;;;;;1046705;28;3883;-47
2023/05/14 01:22:28;;;;;;;;;;;;;;;;;;1045366;28;3933;-49
2023/05/14 01:22:59;;;;;;;;;;;;;;;;;;1043280;28;3054;-50
2023/05/14 01:23:29;;;;;;;;;;;;;;;;;;1043419;28;4059;-50
2023/05/14 01:23:59;;;;;;;;;;;;;;;;;;1044314;28;2862;-50
2023/05/14 01:24:29;;;;;;;;;;;;;;;;;;1043153;28;3990;-48
2023/05/14 01:25:00;;;;;;;;;;;;;;;;;;1045596;28;2815;-47
2023/05/14 01:25:30;;;;;;;;;;;;;;;;;;1047584;28;4071;-49
2023/05/14 01:26:01;;;;;;;;;;;;;;;;;;1046541;28;2567;-48
2023/05/14 01:26:31;;;;;;;;;;;;;;;;;;1046511;28;3772;-52
2023/05/14 01:27:23;;;;;;;;;;;;;;;;;;1045170;28;2958;-49
2023/05/14 01:28:02;;;;;;;;;;;;;;;;;;1046155;28;4654;-49
2023/05/14 01:28:35;;;;;;;;;;;;;;;;;;1044738;28;3874;-50
2023/05/14 01:29:15;;;;;;;;;;;;;;;;;;1044777;28;3250;-49
2023/05/14 01:29:51;;;;;;;;;;;;;;;;;;1045447;28;3818;-48
2023/05/14 01:30:27;;;;;;;;;;;;;;;;;;1045372;28;3810;-46
2023/05/14 01:31:06;;;;;;;;;;;;;;;;;;1046780;28;3174;-52
2023/05/14 01:31:38;;;;;;;;;;;;;;;;;;1045825;28;4031;-49
2023/05/14 01:32:09;;;;;;;;;;;;;;;;;;1048019;28;1918;-48
2023/05/14 01:32:40;;;;;;;;;;;;;;;;;;1045605;28;4001;-49
2023/05/14 01:33:12;;;;;;;;;;;;;;;;;;1046802;28;2945;-52
2023/05/14 01:33:43;;;;;;;;;;;;;;;;;;1043083;28;4011;-51
2023/05/14 01:34:14;;;;;;;;;;;;;;;;;;1042508;28;3010;-52
2023/05/14 01:34:46;;;;;;;;;;;;;;;;;;1044139;28;3976;-49
2023/05/14 01:35:16;;;;;;;;;;;;;;;;;;1044634;28;3335;-52
2023/05/14 01:35:47;;;;;;;;;;;;;;;;;;1046241;28;3851;-48
2023/05/14 01:36:18;;;;;;;;;;;;;;;;;;1046002;28;3988;-52
2023/05/14 01:36:49;;;;;;;;;;;;;;;;;;1046663;28;1401;-49
2023/05/14 01:37:20;;;;;;;;;;;;;;;;;;1045264;28;4174;-47
2023/05/14 01:37:52;;;;;;;;;;;;;;;;;;1042505;28;2978;-49
2023/05/14 01:38:23;;;;;;;;;;;;;;;;;;1043537;28;4300;-48
2023/05/14 01:38:54;;;;;;;;;;;;;;;;;;1044483;28;2970;-50
2023/05/14 01:39:25;;;;;;;;;;;;;;;;;;1045716;28;3959;-52
2023/05/14 01:39:56;;;;;;;;;;;;;;;;;;1042002;28;2928;-49
2023/05/14 01:40:26;;;;;;;;;;;;;;;;;;1041604;28;3884;-51
2023/05/14 01:40:57;;;;;;;;;;;;;;;;;;1039066;28;2951;-50
2023/05/14 01:41:28;;;;;;;;;;;;;;;;;;1039521;28;4168;-50
2023/05/14 01:41:59;;;;;;;;;;;;;;;;;;1039649;28;3112;-49
2023/05/14 01:42:29;;;;;;;;;;;;;;;;;;1042140;28;4261;-50
2023/05/14 01:43:00;;;;;;;;;;;;;;;;;;1041317;28;2989;-49
2023/05/14 01:43:31;;;;;;;;;;;;;;;;;;1041480;28;5139;-51
2023/05/14 01:44:02;;;;;;;;;;;;;;;;;;1040051;28;2954;-50
2023/05/14 01:44:33;;;;;;;;;;;;;;;;;;1041934;28;4009;-52
2023/05/14 01:45:04;;;;;;;;;;;;;;;;;;1042174;28;2669;-55
2023/05/14 01:45:35;;;;;;;;;;;;;;;;;;1038420;28;5006;-52
2023/05/14 01:46:05;;;;;;;;;;;;;;;;;;1043107;28;1606;-51
2023/05/14 01:46:35;;;;;;;;;;;;;;;;;;1041447;28;4246;-49
2023/05/14 01:47:05;;;;;;;;;;;;;;;;;;1041677;28;3287;-48
2023/05/14 01:47:36;;;;;;;;;;;;;;;;;;1039283;28;3775;-50
2023/05/14 01:48:06;;;;;;;;;;;;;;;;;;1040797;28;3025;-48
2023/05/14 01:48:36;;;;;;;;;;;;;;;;;;1041634;28;4097;-51
2023/05/14 01:49:07;;;;;;;;;;;;;;;;;;1043516;28;1663;-49
2023/05/14 01:49:37;;;;;;;;;;;;;;;;;;1042453;28;4104;-49
2023/05/14 01:50:07;;;;;;;;;;;;;;;;;;1040550;28;3007;-53
2023/05/14 01:50:38;;;;;;;;;;;;;;;;;;1040014;28;3980;-49
2023/05/14 01:51:08;;;;;;;;;;;;;;;;;;1043771;28;1791;-48
2023/05/14 01:51:38;;;;;;;;;;;;;;;;;;1039656;28;4058;-48
2023/05/14 01:52:08;;;;;;;;;;;;;;;;;;1042087;28;3031;-49
2023/05/14 01:52:39;;;;;;;;;;;;;;;;;;1042591;28;3917;-48
2023/05/14 01:53:09;;;;;;;;;;;;;;;;;;1040621;28;3243;-47
2023/05/14 01:53:39;;;;;;;;;;;;;;;;;;1040884;28;3971;-50
2023/05/14 01:54:10;;;;;;;;;;;;;;;;;;1041262;28;3410;-52
2023/05/14 01:54:40;;;;;;;;;;;;;;;;;;1041557;28;3857;-50
2023/05/14 01:55:10;;;;;;;;;;;;;;;;;;1042757;28;2147;-50
2023/05/14 01:55:41;;;;;;;;;;;;;;;;;;1042353;28;3932;-49
2023/05/14 01:56:11;;;;;;;;;;;;;;;;;;1041636;28;1894;-52
2023/05/14 01:56:41;;;;;;;;;;;;;;;;;;1041589;28;3745;-50
2023/05/14 01:57:11;;;;;;;;;;;;;;;;;;1042824;28;1413;-53
2023/05/14 01:57:42;;;;;;;;;;;;;;;;;;1042260;28;4083;-48
2023/05/14 01:58:12;;;;;;;;;;;;;;;;;;1042058;28;2036;-48
2023/05/14 01:58:42;;;;;;;;;;;;;;;;;;1041544;28;4031;-51
2023/05/14 01:59:13;;;;;;;;;;;;;;;;;;1042762;28;2517;-49
2023/05/14 01:59:43;;;;;;;;;;;;;;;;;;1042137;28;3914;-53
2023/05/14 02:00:13;;;;;;;;;;;;;;;;;;1039879;28;2928;-49
2023/05/14 02:00:44;;;;;;;;;;;;;;;;;;1039191;28;4026;-53
2023/05/14 02:01:14;;;;;;;;;;;;;;;;;;1040923;28;1680;-48
2023/05/14 02:01:44;;;;;;;;;;;;;;;;;;1041682;28;3899;-53
2023/05/14 02:02:15;;;;;;;;;;;;;;;;;;1040239;28;3322;-55
2023/05/14 02:02:45;;;;;;;;;;;;;;;;;;1041768;28;3874;-52
2023/05/14 02:03:15;;;;;;;;;;;;;;;;;;1042669;28;1932;-51
2023/05/14 02:03:45;;;;;;;;;;;;;;;;;;1041497;28;3733;-50
2023/05/14 02:04:16;;;;;;;;;;;;;;;;;;1040203;28;3038;-49
2023/05/14 02:04:46;;;;;;;;;;;;;;;;;;1041428;28;3913;-51
2023/05/14 02:05:16;;;;;;;;;;;;;;;;;;1041086;28;3055;-50
2023/05/14 02:05:47;;;;;;;;;;;;;;;;;;1042721;28;3942;-50
2023/05/14 02:06:17;;;;;;;;;;;;;;;;;;1039873;28;4238;-49
2023/05/14 02:06:47;;;;;;;;;;;;;;;;;;1043700;28;1679;-49
2023/05/14 02:07:17;;;;;;;;;;;;;;;;;;1042209;28;4051;-53
2023/05/14 02:07:48;;;;;;;;;;;;;;;;;;1044283;28;1715;-52
2023/05/14 02:08:18;;;;;;;;;;;;;;;;;;1041651;28;4084;-48
2023/05/14 02:08:48;;;;;;;;;;;;;;;;;;1043079;28;3428;-49
2023/05/14 02:09:18;;;;;;;;;;;;;;;;;;1040907;28;4298;-51
2023/05/14 02:09:49;;;;;;;;;;;;;;;;;;1041290;28;3007;-48
2023/05/14 02:10:19;;;;;;;;;;;;;;;;;;1040182;28;4011;-51
2023/05/14 02:10:49;;;;;;;;;;;;;;;;;;1042505;28;3508;-48
2023/05/14 02:11:20;;;;;;;;;;;;;;;;;;1040946;28;4024;-52
2023/05/14 02:11:51;;;;;;;;;;;;;;;;;;1040154;28;3116;-47
2023/05/14 02:12:21;;;;;;;;;;;;;;;;;;1043366;28;4146;-52
2023/05/14 02:12:51;;;;;;;;;;;;;;;;;;1041935;28;1676;-49
2023/05/14 02:13:21;;;;;;;;;;;;;;;;;;1041100;28;4034;-52
2023/05/14 02:13:52;;;;;;;;;;;;;;;;;;1039239;28;3124;-49
2023/05/14 02:14:22;;;;;;;;;;;;;;;;;;1046120;28;3958;-50
2023/05/14 02:14:52;;;;;;;;;;;;;;;;;;1044810;28;3014;-50
2023/05/14 02:15:22;;;;;;;;;;;;;;;;;;1042731;28;3916;-52
2023/05/14 02:15:53;;;;;;;;;;;;;;;;;;1044712;28;3378;-50
2023/05/14 02:16:23;;;;;;;;;;;;;;;;;;1042770;28;3780;-49
2023/05/14 02:16:53;;;;;;;;;;;;;;;;;;1042610;28;1809;-49
2023/05/14 02:17:24;;;;;;;;;;;;;;;;;;1040774;28;3848;-49
2023/05/14 02:17:55;;;;;;;;;;;;;;;;;;1040082;28;3153;-47
2023/05/14 02:18:25;;;;;;;;;;;;;;;;;;1040453;28;4442;-47
2023/05/14 02:18:55;;;;;;;;;;;;;;;;;;1041455;28;2708;-53
2023/05/14 02:19:26;;;;;;;;;;;;;;;;;;1041782;28;3998;-50
2023/05/14 02:19:56;;;;;;;;;;;;;;;;;;1042941;28;2516;-50
2023/05/14 02:20:26;;;;;;;;;;;;;;;;;;1039870;28;3904;-52
2023/05/14 02:20:56;;;;;;;;;;;;;;;;;;1041681;28;3517;-49
2023/05/14 02:21:27;;;;;;;;;;;;;;;;;;1040914;28;3922;-51
2023/05/14 02:21:58;;;;;;;;;;;;;;;;;;1042243;28;2704;-50
2023/05/14 02:22:28;;;;;;;;;;;;;;;;;;1042062;28;3902;-51
2023/05/14 02:22:58;;;;;;;;;;;;;;;;;;1042188;28;3072;-53
2023/05/14 02:23:28;;;;;;;;;;;;;;;;;;1039438;28;4040;-55
2023/05/14 02:23:59;;;;;;;;;;;;;;;;;;1043705;28;1672;-51
2023/05/14 02:24:29;;;;;;;;;;;;;;;;;;1040250;28;3990;-51
2023/05/14 02:24:59;;;;;;;;;;;;;;;;;;1042220;28;2004;-49
2023/05/14 02:25:30;;;;;;;;;;;;;;;;;;1039376;28;3964;-55
2023/05/14 02:26:00;;;;;;;;;;;;;;;;;;1043064;28;3180;-53
2023/05/14 02:26:30;;;;;;;;;;;;;;;;;;1042882;28;3881;-50
2023/05/14 02:27:01;;;;;;;;;;;;;;;;;;1043193;28;2152;-52
2023/05/14 02:27:31;;;;;;;;;;;;;;;;;;1040047;28;3779;-49
2023/05/14 02:28:01;;;;;;;;;;;;;;;;;;1040851;28;2911;-52
2023/05/14 02:28:31;;;;;;;;;;;;;;;;;;1039737;28;4016;-54
2023/05/14 02:29:02;;;;;;;;;;;;;;;;;;1041217;28;2951;-49
2023/05/14 02:29:32;;;;;;;;;;;;;;;;;;1040561;28;4017;-51
2023/05/14 02:30:03;;;;;;;;;;;;;;;;;;1041331;28;2942;-50
2023/05/14 02:30:33;;;;;;;;;;;;;;;;;;1041457;28;4020;-53
2023/05/14 02:31:04;;;;;;;;;;;;;;;;;;1041971;28;3272;-50
2023/05/14 02:31:34;;;;;;;;;;;;;;;;;;1041052;28;4046;-49
2023/05/14 02:32:04;;;;;;;;;;;;;;;;;;1042558;28;2773;-50
2023/05/14 02:32:34;;;;;;;;;;;;;;;;;;1043102;28;4029;-52
2023/05/14 02:33:05;;;;;;;;;;;;;;;;;;1041483;28;1706;-48
2023/05/14 02:33:35;;;;;;;;;;;;;;;;;;1040806;28;4046;-53
2023/05/14 02:34:05;;;;;;;;;;;;;;;;;;1042105;28;2695;-53
2023/05/14 02:34:36;;;;;;;;;;;;;;;;;;1041058;28;4178;-51
2023/05/14 02:35:06;;;;;;;;;;;;;;;;;;1041717;28;2937;-50
2023/05/14 02:35:37;;;;;;;;;;;;;;;;;;1040888;28;4124;-53
2023/05/14 02:36:07;;;;;;;;;;;;;;;;;;1042403;28;2970;-49
2023/05/14 02:36:37;;;;;;;;;;;;;;;;;;1040548;28;3875;-47
2023/05/14 02:37:07;;;;;;;;;;;;;;;;;;1041899;28;2715;-51
2023/05/14 02:37:38;;;;;;;;;;;;;;;;;;1038964;28;3933;-52
2023/05/14 02:38:08;;;;;;;;;;;;;;;;;;1040957;28;2967;-53
2023/05/14 02:38:38;;;;;;;;;;;;;;;;;;1041171;28;3747;-52
2023/05/14 02:39:09;;;;;;;;;;;;;;;;;;1039731;28;3405;-52
2023/05/14 02:39:39;;;;;;;;;;;;;;;;;;1040563;28;3777;-48
2023/05/14 02:40:09;;;;;;;;;;;;;;;;;;1043592;28;1748;-47
2023/05/14 02:40:40;;;;;;;;;;;;;;;;;;1040512;28;3861;-50
2023/05/14 02:41:10;;;;;;;;;;;;;;;;;;1041074;28;2898;-49
2023/05/14 02:41:40;;;;;;;;;;;;;;;;;;1042155;28;4088;-50
2023/05/14 02:42:10;;;;;;;;;;;;;;;;;;1048421;28;2347;-52
2023/05/14 02:42:41;;;;;;;;;;;;;;;;;;1049457;28;4056;-50
2023/05/14 02:43:11;;;;;;;;;;;;;;;;;;1047638;28;3263;-51
2023/05/14 02:43:41;;;;;;;;;;;;;;;;;;1043314;28;4021;-51
2023/05/14 02:44:11;;;;;;;;;;;;;;;;;;1038388;28;3052;-49
2023/05/14 02:44:42;;;;;;;;;;;;;;;;;;1041059;28;4568;-53
2023/05/14 02:45:12;;;;;;;;;;;;;;;;;;1038740;28;3212;-50
2023/05/14 02:45:42;;;;;;;;;;;;;;;;;;1041848;28;3888;-49
2023/05/14 02:46:12;;;;;;;;;;;;;;;;;;1039936;28;2699;-49
2023/05/14 02:46:43;;;;;;;;;;;;;;;;;;1040260;28;3754;-48
2023/05/14 02:47:13;;;;;;;;;;;;;;;;;;1040273;28;2963;-53
2023/05/14 02:47:43;;;;;;;;;;;;;;;;;;1040341;28;3975;-49
2023/05/14 02:48:14;;;;;;;;;;;;;;;;;;1038844;28;4505;-51
2023/05/14 02:48:44;;;;;;;;;;;;;;;;;;1040904;28;4006;-54
2023/05/14 02:49:14;;;;;;;;;;;;;;;;;;1039276;28;2872;-51
2023/05/14 02:49:45;;;;;;;;;;;;;;;;;;1040155;28;4033;-48
2023/05/14 02:50:15;;;;;;;;;;;;;;;;;;1041592;28;2675;-47
2023/05/14 02:50:45;;;;;;;;;;;;;;;;;;1039880;28;4031;-49
2023/05/14 02:51:16;;;;;;;;;;;;;;;;;;1042112;28;2888;-51
2023/05/14 02:51:46;;;;;;;;;;;;;;;;;;1038683;28;3753;-49
2023/05/14 02:52:16;;;;;;;;;;;;;;;;;;1042100;28;1689;-48
2023/05/14 02:52:46;;;;;;;;;;;;;;;;;;1042082;28;3822;-50
2023/05/14 02:53:17;;;;;;;;;;;;;;;;;;1040508;28;2957;-49
2023/05/14 02:53:47;;;;;;;;;;;;;;;;;;1041025;28;4443;-50
2023/05/14 02:54:18;;;;;;;;;;;;;;;;;;1045792;28;3903;-54
2023/05/14 02:54:48;;;;;;;;;;;;;;;;;;1040272;28;2920;-50
2023/05/14 02:55:18;;;;;;;;;;;;;;;;;;1039233;28;4380;-49
2023/05/14 02:55:48;;;;;;;;;;;;;;;;;;1043526;28;3079;-50
2023/05/14 02:56:19;;;;;;;;;;;;;;;;;;1044756;28;4062;-50
2023/05/14 02:56:50;;;;;;;;;;;;;;;;;;1044195;28;2957;-48
2023/05/14 02:57:20;;;;;;;;;;;;;;;;;;1044483;28;3785;-50
2023/05/14 02:57:52;;;;;;;;;;;;;;;;;;1047751;28;1802;-52
2023/05/14 02:58:22;;;;;;;;;;;;;;;;;;1046016;28;3944;-49
2023/05/14 02:58:52;;;;;;;;;;;;;;;;;;1047741;28;1742;-48
2023/05/14 02:59:23;;;;;;;;;;;;;;;;;;1042067;28;4037;-53
2023/05/14 02:59:53;;;;;;;;;;;;;;;;;;1044345;28;3000;-48
2023/05/14 03:00:23;;;;;;;;;;;;;;;;;;1041984;28;3873;-49
2023/05/14 03:00:53;;;;;;;;;;;;;;;;;;1047455;28;1617;-53
2023/05/14 03:01:24;;;;;;;;;;;;;;;;;;1046183;28;3974;-53
2023/05/14 03:01:54;;;;;;;;;;;;;;;;;;1046658;28;2833;-50
2023/05/14 03:02:25;;;;;;;;;;;;;;;;;;1042753;28;3764;-53
2023/05/14 03:02:55;;;;;;;;;;;;;;;;;;1045576;28;2921;-50
2023/05/14 03:03:25;;;;;;;;;;;;;;;;;;1045967;28;4383;-52
2023/05/14 03:03:55;;;;;;;;;;;;;;;;;;1047284;28;1724;-54
2023/05/14 03:04:26;;;;;;;;;;;;;;;;;;1045146;28;3936;-51
2023/05/14 03:04:56;;;;;;;;;;;;;;;;;;1045719;28;3240;-50
2023/05/14 03:05:26;;;;;;;;;;;;;;;;;;1047233;28;3763;-49
2023/05/14 03:05:57;;;;;;;;;;;;;;;;;;1043931;28;2951;-50
2023/05/14 03:06:27;;;;;;;;;;;;;;;;;;1047107;28;3944;-49
2023/05/14 03:06:57;;;;;;;;;;;;;;;;;;1046402;28;1888;-51
2023/05/14 03:07:27;;;;;;;;;;;;;;;;;;1044032;28;3770;-55
2023/05/14 03:07:59;;;;;;;;;;;;;;;;;;1043105;28;3166;-50
2023/05/14 03:08:30;;;;;;;;;;;;;;;;;;1042613;28;4075;-48
2023/05/14 03:09:00;;;;;;;;;;;;;;;;;;1042416;28;3570;-49
2023/05/14 03:09:30;;;;;;;;;;;;;;;;;;1045130;28;3796;-50
2023/05/14 03:10:00;;;;;;;;;;;;;;;;;;1042828;28;3280;-49
2023/05/14 03:10:31;;;;;;;;;;;;;;;;;;1044299;28;4017;-53
2023/05/14 03:11:02;;;;;;;;;;;;;;;;;;1045589;28;1965;-48
2023/05/14 03:11:32;;;;;;;;;;;;;;;;;;1040700;28;4233;-50
2023/05/14 03:12:02;;;;;;;;;;;;;;;;;;1044557;28;2920;-52
2023/05/14 03:12:33;;;;;;;;;;;;;;;;;;1046907;28;3773;-51
2023/05/14 03:13:03;;;;;;;;;;;;;;;;;;1045771;28;3130;-50
2023/05/14 03:13:33;;;;;;;;;;;;;;;;;;1042987;28;3987;-54
2023/05/14 03:14:03;;;;;;;;;;;;;;;;;;1047591;28;1673;-49
2023/05/14 03:14:34;;;;;;;;;;;;;;;;;;1045829;28;3812;-51
2023/05/14 03:15:04;;;;;;;;;;;;;;;;;;1046820;28;2686;-51
2023/05/14 03:15:34;;;;;;;;;;;;;;;;;;1044217;28;4068;-46
2023/05/14 03:16:05;;;;;;;;;;;;;;;;;;1048146;28;1679;-50
2023/05/14 03:16:35;;;;;;;;;;;;;;;;;;1046099;28;4183;-47
2023/05/14 03:17:05;;;;;;;;;;;;;;;;;;1046695;28;2705;-52
2023/05/14 03:17:36;;;;;;;;;;;;;;;;;;1044093;28;4099;-47
2023/05/14 03:18:06;;;;;;;;;;;;;;;;;;1047792;28;1669;-47
2023/05/14 03:18:36;;;;;;;;;;;;;;;;;;1044791;28;4066;-48
2023/05/14 03:19:07;;;;;;;;;;;;;;;;;;1046662;28;2950;-48
2023/05/14 03:19:37;;;;;;;;;;;;;;;;;;1043595;28;3866;-49
2023/05/14 03:20:08;;;;;;;;;;;;;;;;;;1045398;28;3043;-50
2023/05/14 03:20:38;;;;;;;;;;;;;;;;;;1045488;28;3866;-51
2023/05/14 03:21:08;;;;;;;;;;;;;;;;;;1042343;28;3321;-50
2023/05/14 03:21:38;;;;;;;;;;;;;;;;;;1045214;28;4027;-48
2023/05/14 03:22:09;;;;;;;;;;;;;;;;;;1045222;28;3068;-48
2023/05/14 03:22:39;;;;;;;;;;;;;;;;;;1044905;28;4072;-51
2023/05/14 03:23:09;;;;;;;;;;;;;;;;;;1044075;28;3499;-50
2023/05/14 03:23:39;;;;;;;;;;;;;;;;;;1046286;28;4025;-51
2023/05/14 03:24:10;;;;;;;;;;;;;;;;;;1046579;28;1969;-49
2023/05/14 03:24:40;;;;;;;;;;;;;;;;;;1045882;28;3794;-50
2023/05/14 03:25:10;;;;;;;;;;;;;;;;;;1046329;28;1724;-49
2023/05/14 03:25:41;;;;;;;;;;;;;;;;;;1047237;28;4010;-48
2023/05/14 03:26:11;;;;;;;;;;;;;;;;;;1044683;28;3088;-47
2023/05/14 03:26:41;;;;;;;;;;;;;;;;;;1045006;28;3885;-50
2023/05/14 03:27:12;;;;;;;;;;;;;;;;;;1046870;28;1966;-48
2023/05/14 03:27:42;;;;;;;;;;;;;;;;;;1043996;28;3893;-53
2023/05/14 03:28:12;;;;;;;;;;;;;;;;;;1045291;28;3010;-51
2023/05/14 03:28:43;;;;;;;;;;;;;;;;;;1043008;28;4016;-50
2023/05/14 03:29:16;;;;;;;;;;;;;;;;;;1044261;28;3797;-52
2023/05/14 03:29:47;;;;;;;;;;;;;;;;;;1044162;28;3797;-47
2023/05/14 03:30:17;;;;;;;;;;;;;;;;;;1044006;28;2928;-53
2023/05/14 03:30:47;;;;;;;;;;;;;;;;;;1045296;28;3898;-53
2023/05/14 03:31:17;;;;;;;;;;;;;;;;;;1044441;28;3940;-52
2023/05/14 03:31:49;;;;;;;;;;;;;;;;;;1041194;28;3156;-49
2023/05/14 03:32:20;;;;;;;;;;;;;;;;;;1046133;28;3931;-54
2023/05/14 03:32:50;;;;;;;;;;;;;;;;;;1045407;28;2269;-50
2023/05/14 03:33:21;;;;;;;;;;;;;;;;;;1046065;28;4082;-48
2023/05/14 03:33:51;;;;;;;;;;;;;;;;;;1044669;28;2934;-50
2023/05/14 03:34:22;;;;;;;;;;;;;;;;;;1045461;28;4025;-52
2023/05/14 03:34:52;;;;;;;;;;;;;;;;;;1045730;28;3000;-53
2023/05/14 03:35:22;;;;;;;;;;;;;;;;;;1045812;28;4049;-50